South Pasadena, Florida
Current Conditions -  °F | °C
As of 1:53 PM on Tuesday 27 Jan 2015 (Local Time) from KSPG Reporting Station
Clear Clear  
Wind Chill: 64°   Ceiling: Unl
Heat Index: 64°   Visibility: 10mi
Dew Point: 48°   Wind: 14mph
Humidity: 56%   Direction: 280°W
Pressure: 29.99"   Gusts: 23mph
Location:  27.7562°N, 82.7184°W
Report Text: KSPG 271853Z 28012G20KT 10SM CLR 18/09 A2999 RMK AO2 SLP154 T01780089
Loading
Personal Weather Stations






























Interactive Weather Map New forecast layout! Learn more

10-Day Weather Forecast

Advertisements
Track Severe Weather on mobile